LIPQ/TRS METAR and TAF weather

Enter ICAO airport designator
Station Type Date Time Source
LIPQ METAR 2019/02/20 17:20 UTC NOAA

LIPQ 201720Z 24003KT 3000 BR NSC 08/05 Q1025


Station Type Date Time Source
LIPQ Decoded METAR 2019/02/20 17:20 UTC NOAA

Ronchi Dei Legionari, Italy (LIPQ) 45-49N 013-29E 12M
Feb 20, 2019 - 12:20 PM EST / 2019.02.20 1720 UTC
Wind: from the WSW (240 degrees) at 3 MPH (3 KT):0
Visibility: 1 mile(s):0
Weather: mist
Temperature: 46 F (8 C)
Dew Point: 41 F (5 C)
Relative Humidity: 81%
Pressure (altimeter): 30.27 in. Hg (1025 hPa)
ob: LIPQ 201720Z 24003KT 3000 BR NSC 08/05 Q1025
cycle: 17

Station Type Date Time Source
LIPQ TAF 2019/02/20 18:33 UTC NOAA

TAF
AMD TAF
AMD LIPQ 201729Z 2018/2118 VRB04KT 2000 BR NSC
TEMPO 2100/2109 0800 FG
BECMG 2110/2112 6000


Example: see airport list